sensor_id;sensor_type;location;lat;lon;timestamp;pressure;altitude;pressure_sealevel;temperature
34807;BMP280;18310;55.586;12.286;2023-09-19T00:03:35;100089.50;;;23.64
34807;BMP280;18310;55.586;12.286;2023-09-19T00:06:40;100082.84;;;23.71
34807;BMP280;18310;55.586;12.286;2023-09-19T00:09:44;100080.72;;;23.75
34807;BMP280;18310;55.586;12.286;2023-09-19T00:12:50;100079.00;;;23.77
34807;BMP280;18310;55.586;12.286;2023-09-19T00:16:13;100076.38;;;23.83
34807;BMP280;18310;55.586;12.286;2023-09-19T00:19:17;100075.00;;;23.87
34807;BMP280;18310;55.586;12.286;2023-09-19T00:22:26;100074.41;;;23.92
34807;BMP280;18310;55.586;12.286;2023-09-19T00:25:29;100061.09;;;23.96
34807;BMP280;18310;55.586;12.286;2023-09-19T00:28:34;100063.75;;;24.00
34807;BMP280;18310;55.586;12.286;2023-09-19T00:31:39;100065.59;;;24.03
34807;BMP280;18310;55.586;12.286;2023-09-19T00:34:42;100067.88;;;24.04
34807;BMP280;18310;55.586;12.286;2023-09-19T00:37:45;100059.38;;;24.08
34807;BMP280;18310;55.586;12.286;2023-09-19T00:40:49;100051.81;;;24.08
34807;BMP280;18310;55.586;12.286;2023-09-19T00:43:53;100052.44;;;24.13
34807;BMP280;18310;55.586;12.286;2023-09-19T00:46:57;100044.44;;;24.15
34807;BMP280;18310;55.586;12.286;2023-09-19T00:50:02;100033.59;;;24.17
34807;BMP280;18310;55.586;12.286;2023-09-19T00:53:09;100033.31;;;24.15
34807;BMP280;18310;55.586;12.286;2023-09-19T00:56:16;100037.91;;;24.18
34807;BMP280;18310;55.586;12.286;2023-09-19T00:59:20;100029.28;;;24.16
34807;BMP280;18310;55.586;12.286;2023-09-19T01:02:26;100024.50;;;24.07
34807;BMP280;18310;55.586;12.286;2023-09-19T01:05:30;100028.81;;;24.08
34807;BMP280;18310;55.586;12.286;2023-09-19T01:08:33;100037.47;;;24.01
34807;BMP280;18310;55.586;12.286;2023-09-19T01:11:40;100017.06;;;23.95
34807;BMP280;18310;55.586;12.286;2023-09-19T01:15:12;100034.06;;;23.88
34807;BMP280;18310;55.586;12.286;2023-09-19T01:18:24;100034.41;;;23.81
34807;BMP280;18310;55.586;12.286;2023-09-19T01:21:37;100029.13;;;23.74
34807;BMP280;18310;55.586;12.286;2023-09-19T01:25:18;100039.63;;;23.61
34807;BMP280;18310;55.586;12.286;2023-09-19T01:28:30;100037.00;;;23.57
34807;BMP280;18310;55.586;12.286;2023-09-19T01:31:42;100034.19;;;23.48
34807;BMP280;18310;55.586;12.286;2023-09-19T01:34:47;100048.72;;;23.43
34807;BMP280;18310;55.586;12.286;2023-09-19T01:37:51;100046.81;;;23.40
34807;BMP280;18310;55.586;12.286;2023-09-19T01:41:00;100046.81;;;23.40
34807;BMP280;18310;55.586;12.286;2023-09-19T01:44:09;100044.50;;;23.38
34807;BMP280;18310;55.586;12.286;2023-09-19T01:47:20;100048.84;;;23.39
34807;BMP280;18310;55.586;12.286;2023-09-19T01:50:30;100044.81;;;23.40
34807;BMP280;18310;55.586;12.286;2023-09-19T01:53:37;100053.16;;;23.40
34807;BMP280;18310;55.586;12.286;2023-09-19T01:56:48;100059.03;;;23.42
34807;BMP280;18310;55.586;12.286;2023-09-19T01:59:59;100057.66;;;23.47
34807;BMP280;18310;55.586;12.286;2023-09-19T02:03:05;100054.56;;;23.45
34807;BMP280;18310;55.586;12.286;2023-09-19T02:06:13;100049.31;;;23.47
34807;BMP280;18310;55.586;12.286;2023-09-19T02:09:17;100053.00;;;23.44
34807;BMP280;18310;55.586;12.286;2023-09-19T02:12:21;100060.25;;;23.41
34807;BMP280;18310;55.586;12.286;2023-09-19T02:15:25;100057.47;;;23.41
34807;BMP280;18310;55.586;12.286;2023-09-19T02:18:29;100051.16;;;23.41
34807;BMP280;18310;55.586;12.286;2023-09-19T02:21:32;100051.50;;;23.43
34807;BMP280;18310;55.586;12.286;2023-09-19T02:24:36;100050.22;;;23.44
34807;BMP280;18310;55.586;12.286;2023-09-19T02:27:40;100045.47;;;23.44
34807;BMP280;18310;55.586;12.286;2023-09-19T02:30:43;100041.13;;;23.43
34807;BMP280;18310;55.586;12.286;2023-09-19T02:33:52;100053.34;;;23.46
34807;BMP280;18310;55.586;12.286;2023-09-19T02:37:23;100044.50;;;23.47
34807;BMP280;18310;55.586;12.286;2023-09-19T02:40:27;100049.31;;;23.47
34807;BMP280;18310;55.586;12.286;2023-09-19T02:43:30;100047.28;;;23.47
34807;BMP280;18310;55.586;12.286;2023-09-19T02:46:34;100042.84;;;23.50
34807;BMP280;18310;55.586;12.286;2023-09-19T02:49:38;100042.84;;;23.50
34807;BMP280;18310;55.586;12.286;2023-09-19T02:52:44;100044.06;;;23.49
34807;BMP280;18310;55.586;12.286;2023-09-19T02:55:47;100043.75;;;23.47
34807;BMP280;18310;55.586;12.286;2023-09-19T02:58:51;100043.16;;;23.43
34807;BMP280;18310;55.586;12.286;2023-09-19T03:01:55;100049.47;;;23.43
34807;BMP280;18310;55.586;12.286;2023-09-19T03:04:58;100048.50;;;23.37
34807;BMP280;18310;55.586;12.286;2023-09-19T03:08:04;100048.06;;;23.39
34807;BMP280;18310;55.586;12.286;2023-09-19T03:11:08;100050.22;;;23.35
34807;BMP280;18310;55.586;12.286;2023-09-19T03:14:13;100037.25;;;23.32
34807;BMP280;18310;55.586;12.286;2023-09-19T03:17:24;100037.41;;;23.28
34807;BMP280;18310;55.586;12.286;2023-09-19T03:20:28;100036.91;;;23.21
34807;BMP280;18310;55.586;12.286;2023-09-19T03:23:32;100031.03;;;23.19
34807;BMP280;18310;55.586;12.286;2023-09-19T03:26:35;100028.38;;;23.15
34807;BMP280;18310;55.586;12.286;2023-09-19T03:29:39;100032.09;;;23.12
34807;BMP280;18310;55.586;12.286;2023-09-19T03:32:44;100037.47;;;23.07
34807;BMP280;18310;55.586;12.286;2023-09-19T03:35:52;100049.03;;;23.05
34807;BMP280;18310;55.586;12.286;2023-09-19T03:38:57;100055.19;;;23.00
34807;BMP280;18310;55.586;12.286;2023-09-19T03:42:00;100055.00;;;22.95
34807;BMP280;18310;55.586;12.286;2023-09-19T03:45:05;100065.09;;;22.79
34807;BMP280;18310;55.586;12.286;2023-09-19T03:48:08;100045.84;;;22.76
34807;BMP280;18310;55.586;12.286;2023-09-19T03:51:12;100068.47;;;22.74
34807;BMP280;18310;55.586;12.286;2023-09-19T03:54:17;100062.09;;;22.65
34807;BMP280;18310;55.586;12.286;2023-09-19T03:57:26;100069.59;;;22.55
34807;BMP280;18310;55.586;12.286;2023-09-19T04:00:29;100073.25;;;22.52
34807;BMP280;18310;55.586;12.286;2023-09-19T04:03:33;100070.75;;;22.45
34807;BMP280;18310;55.586;12.286;2023-09-19T04:06:47;100067.00;;;22.39
34807;BMP280;18310;55.586;12.286;2023-09-19T04:09:52;100068.66;;;22.37
34807;BMP280;18310;55.586;12.286;2023-09-19T04:12:56;100071.00;;;22.38
34807;BMP280;18310;55.586;12.286;2023-09-19T04:15:59;100077.88;;;22.34
34807;BMP280;18310;55.586;12.286;2023-09-19T04:19:02;100081.59;;;22.31
34807;BMP280;18310;55.586;12.286;2023-09-19T04:22:05;100075.38;;;22.26
34807;BMP280;18310;55.586;12.286;2023-09-19T04:25:10;100089.25;;;22.26
34807;BMP280;18310;55.586;12.286;2023-09-19T04:28:13;100095.66;;;22.23
34807;BMP280;18310;55.586;12.286;2023-09-19T04:31:17;100101.81;;;22.18
34807;BMP280;18310;55.586;12.286;2023-09-19T04:34:22;100098.81;;;22.13
34807;BMP280;18310;55.586;12.286;2023-09-19T04:37:26;100108.28;;;22.03
34807;BMP280;18310;55.586;12.286;2023-09-19T04:40:31;100110.16;;;22.06
34807;BMP280;18310;55.586;12.286;2023-09-19T04:43:35;100119.38;;;22.03
34807;BMP280;18310;55.586;12.286;2023-09-19T04:46:40;100119.00;;;22.01
34807;BMP280;18310;55.586;12.286;2023-09-19T04:49:43;100113.31;;;21.95
34807;BMP280;18310;55.586;12.286;2023-09-19T04:52:49;100119.72;;;21.92
34807;BMP280;18310;55.586;12.286;2023-09-19T04:55:54;100117.81;;;21.89
34807;BMP280;18310;55.586;12.286;2023-09-19T04:58:58;100116.50;;;21.81
34807;BMP280;18310;55.586;12.286;2023-09-19T05:02:29;100127.47;;;21.85
34807;BMP280;18310;55.586;12.286;2023-09-19T05:05:32;100120.06;;;21.82
34807;BMP280;18310;55.586;12.286;2023-09-19T05:08:36;100121.28;;;21.81
34807;BMP280;18310;55.586;12.286;2023-09-19T05:11:40;100121.28;;;21.81
34807;BMP280;18310;55.586;12.286;2023-09-19T05:14:43;100108.78;;;21.76
34807;BMP280;18310;55.586;12.286;2023-09-19T05:17:51;100116.88;;;21.83
34807;BMP280;18310;55.586;12.286;2023-09-19T05:21:01;100110.09;;;21.84
34807;BMP280;18310;55.586;12.286;2023-09-19T05:24:05;100109.66;;;21.86
34807;BMP280;18310;55.586;12.286;2023-09-19T05:27:12;100130.81;;;21.92
34807;BMP280;18310;55.586;12.286;2023-09-19T05:30:15;100116.59;;;22.03
34807;BMP280;18310;55.586;12.286;2023-09-19T05:33:20;100117.56;;;22.09
34807;BMP280;18310;55.586;12.286;2023-09-19T05:36:23;100126.16;;;22.23
34807;BMP280;18310;55.586;12.286;2023-09-19T05:39:26;100133.03;;;22.32
34807;BMP280;18310;55.586;12.286;2023-09-19T05:42:29;100142.22;;;22.41
34807;BMP280;18310;55.586;12.286;2023-09-19T05:45:33;100160.16;;;22.49
34807;BMP280;18310;55.586;12.286;2023-09-19T05:48:37;100162.44;;;22.51
34807;BMP280;18310;55.586;12.286;2023-09-19T05:52:06;100183.53;;;22.48
34807;BMP280;18310;55.586;12.286;2023-09-19T05:55:10;100184.69;;;22.38
34807;BMP280;18310;55.586;12.286;2023-09-19T05:58:13;100176.41;;;22.25
34807;BMP280;18310;55.586;12.286;2023-09-19T06:01:16;100162.44;;;22.16
34807;BMP280;18310;55.586;12.286;2023-09-19T06:04:20;100171.47;;;22.08
34807;BMP280;18310;55.586;12.286;2023-09-19T06:07:27;100181.22;;;22.00
34807;BMP280;18310;55.586;12.286;2023-09-19T06:10:38;100199.31;;;21.92
34807;BMP280;18310;55.586;12.286;2023-09-19T06:13:41;100195.31;;;21.80
34807;BMP280;18310;55.586;12.286;2023-09-19T06:16:44;100212.47;;;21.75
34807;BMP280;18310;55.586;12.286;2023-09-19T06:19:49;100215.06;;;21.95
34807;BMP280;18310;55.586;12.286;2023-09-19T06:22:54;100226.75;;;22.24
34807;BMP280;18310;55.586;12.286;2023-09-19T06:26:21;100233.97;;;22.68
34807;BMP280;18310;55.586;12.286;2023-09-19T06:29:25;100233.81;;;23.06
34807;BMP280;18310;55.586;12.286;2023-09-19T06:32:28;100239.31;;;23.50
34807;BMP280;18310;55.586;12.286;2023-09-19T06:35:34;100224.31;;;23.78
34807;BMP280;18310;55.586;12.286;2023-09-19T06:38:37;100240.00;;;24.21
34807;BMP280;18310;55.586;12.286;2023-09-19T06:41:42;100237.88;;;24.52
34807;BMP280;18310;55.586;12.286;2023-09-19T06:44:47;100251.81;;;24.88
34807;BMP280;18310;55.586;12.286;2023-09-19T06:47:52;100244.66;;;25.14
34807;BMP280;18310;55.586;12.286;2023-09-19T06:51:00;100243.34;;;25.34
34807;BMP280;18310;55.586;12.286;2023-09-19T06:54:06;100259.34;;;25.57
34807;BMP280;18310;55.586;12.286;2023-09-19T06:57:12;100265.59;;;25.52
34807;BMP280;18310;55.586;12.286;2023-09-19T07:00:16;100268.09;;;25.41
34807;BMP280;18310;55.586;12.286;2023-09-19T07:03:21;100256.88;;;25.08
34807;BMP280;18310;55.586;12.286;2023-09-19T07:06:27;100261.56;;;24.84
34807;BMP280;18310;55.586;12.286;2023-09-19T07:09:31;100264.78;;;24.82
34807;BMP280;18310;55.586;12.286;2023-09-19T07:12:35;100262.63;;;24.68
34807;BMP280;18310;55.586;12.286;2023-09-19T07:15:39;100285.19;;;24.43
34807;BMP280;18310;55.586;12.286;2023-09-19T07:18:48;100275.69;;;24.13
34807;BMP280;18310;55.586;12.286;2023-09-19T07:21:52;100285.03;;;23.88
34807;BMP280;18310;55.586;12.286;2023-09-19T07:24:55;100269.50;;;23.69
34807;BMP280;18310;55.586;12.286;2023-09-19T07:28:00;100272.03;;;23.55
34807;BMP280;18310;55.586;12.286;2023-09-19T07:31:03;100284.69;;;23.47
34807;BMP280;18310;55.586;12.286;2023-09-19T07:34:09;100284.94;;;23.39
34807;BMP280;18310;55.586;12.286;2023-09-19T07:37:12;100281.25;;;23.42
34807;BMP280;18310;55.586;12.286;2023-09-19T07:40:18;100279.25;;;23.43
34807;BMP280;18310;55.586;12.286;2023-09-19T07:43:24;100277.69;;;23.42
34807;BMP280;18310;55.586;12.286;2023-09-19T07:46:27;100276.47;;;23.43
34807;BMP280;18310;55.586;12.286;2023-09-19T07:49:33;100293.97;;;23.53
34807;BMP280;18310;55.586;12.286;2023-09-19T07:52:36;100280.56;;;23.60
34807;BMP280;18310;55.586;12.286;2023-09-19T07:55:41;100264.53;;;23.64
34807;BMP280;18310;55.586;12.286;2023-09-19T07:58:46;100291.09;;;23.65
34807;BMP280;18310;55.586;12.286;2023-09-19T08:01:49;100291.56;;;23.64
34807;BMP280;18310;55.586;12.286;2023-09-19T08:04:52;100295.41;;;23.66
34807;BMP280;18310;55.586;12.286;2023-09-19T08:07:56;100293.13;;;23.65
34807;BMP280;18310;55.586;12.286;2023-09-19T08:11:01;100307.72;;;23.56
34807;BMP280;18310;55.586;12.286;2023-09-19T08:14:05;100310.19;;;23.32
34807;BMP280;18310;55.586;12.286;2023-09-19T08:17:10;100335.63;;;23.09
34807;BMP280;18310;55.586;12.286;2023-09-19T08:20:14;100337.94;;;22.76
34807;BMP280;18310;55.586;12.286;2023-09-19T08:23:19;100342.41;;;22.61
34807;BMP280;18310;55.586;12.286;2023-09-19T08:26:23;100346.09;;;22.46
34807;BMP280;18310;55.586;12.286;2023-09-19T08:29:27;100329.91;;;22.32
34807;BMP280;18310;55.586;12.286;2023-09-19T08:32:56;100334.09;;;22.23
34807;BMP280;18310;55.586;12.286;2023-09-19T08:36:00;100346.66;;;22.15
34807;BMP280;18310;55.586;12.286;2023-09-19T08:39:06;100341.31;;;22.08
34807;BMP280;18310;55.586;12.286;2023-09-19T08:42:10;100335.88;;;22.05
34807;BMP280;18310;55.586;12.286;2023-09-19T08:45:14;100341.41;;;21.92
34807;BMP280;18310;55.586;12.286;2023-09-19T08:48:23;100327.56;;;21.92
34807;BMP280;18310;55.586;12.286;2023-09-19T08:51:30;100347.72;;;21.93
34807;BMP280;18310;55.586;12.286;2023-09-19T08:54:38;100353.03;;;21.87
34807;BMP280;18310;55.586;12.286;2023-09-19T08:57:43;100355.94;;;21.84
34807;BMP280;18310;55.586;12.286;2023-09-19T09:00:52;100334.88;;;21.86
34807;BMP280;18310;55.586;12.286;2023-09-19T09:03:58;100335.94;;;21.89
34807;BMP280;18310;55.586;12.286;2023-09-19T09:07:02;100340.19;;;21.93
34807;BMP280;18310;55.586;12.286;2023-09-19T09:10:06;100345.50;;;22.00
34807;BMP280;18310;55.586;12.286;2023-09-19T09:13:10;100327.78;;;22.10
34807;BMP280;18310;55.586;12.286;2023-09-19T09:16:16;100346.56;;;22.19
34807;BMP280;18310;55.586;12.286;2023-09-19T09:19:23;100343.88;;;22.28
34807;BMP280;18310;55.586;12.286;2023-09-19T09:22:27;100353.31;;;22.31
34807;BMP280;18310;55.586;12.286;2023-09-19T09:25:50;100362.28;;;22.35
34807;BMP280;18310;55.586;12.286;2023-09-19T09:28:57;100364.28;;;22.34
34807;BMP280;18310;55.586;12.286;2023-09-19T09:32:19;100363.41;;;22.37
34807;BMP280;18310;55.586;12.286;2023-09-19T09:35:24;100366.16;;;22.50
34807;BMP280;18310;55.586;12.286;2023-09-19T09:38:28;100365.94;;;22.57
34807;BMP280;18310;55.586;12.286;2023-09-19T09:41:36;100367.81;;;22.72
34807;BMP280;18310;55.586;12.286;2023-09-19T09:44:42;100360.22;;;22.85
34807;BMP280;18310;55.586;12.286;2023-09-19T09:47:47;100358.22;;;22.99
34807;BMP280;18310;55.586;12.286;2023-09-19T09:51:30;100362.66;;;23.18
34807;BMP280;18310;55.586;12.286;2023-09-19T09:54:35;100348.75;;;23.30
34807;BMP280;18310;55.586;12.286;2023-09-19T09:57:39;100360.63;;;23.53
34807;BMP280;18310;55.586;12.286;2023-09-19T10:00:52;100343.59;;;23.72
34807;BMP280;18310;55.586;12.286;2023-09-19T10:03:59;100349.41;;;23.87
34807;BMP280;18310;55.586;12.286;2023-09-19T10:07:04;100358.94;;;24.08
34807;BMP280;18310;55.586;12.286;2023-09-19T10:10:13;100350.91;;;24.10
34807;BMP280;18310;55.586;12.286;2023-09-19T10:13:19;100359.81;;;24.04
34807;BMP280;18310;55.586;12.286;2023-09-19T10:16:23;100358.75;;;24.02
34807;BMP280;18310;55.586;12.286;2023-09-19T10:19:53;100375.00;;;24.03
34807;BMP280;18310;55.586;12.286;2023-09-19T10:23:00;100399.94;;;23.94
34807;BMP280;18310;55.586;12.286;2023-09-19T10:26:05;100406.97;;;23.77
34807;BMP280;18310;55.586;12.286;2023-09-19T10:29:13;100421.66;;;23.56
34807;BMP280;18310;55.586;12.286;2023-09-19T10:32:22;100407.72;;;23.34
34807;BMP280;18310;55.586;12.286;2023-09-19T10:35:28;100397.81;;;23.12
34807;BMP280;18310;55.586;12.286;2023-09-19T10:38:33;100395.94;;;22.96
34807;BMP280;18310;55.586;12.286;2023-09-19T10:41:38;100401.19;;;22.81
34807;BMP280;18310;55.586;12.286;2023-09-19T10:45:01;100393.66;;;22.69
34807;BMP280;18310;55.586;12.286;2023-09-19T10:48:10;100405.34;;;22.64
34807;BMP280;18310;55.586;12.286;2023-09-19T10:51:16;100386.81;;;22.61
34807;BMP280;18310;55.586;12.286;2023-09-19T10:54:23;100378.69;;;22.54
34807;BMP280;18310;55.586;12.286;2023-09-19T10:57:30;100378.91;;;22.60
34807;BMP280;18310;55.586;12.286;2023-09-19T11:00:50;100377.34;;;22.71
34807;BMP280;18310;55.586;12.286;2023-09-19T11:04:21;100382.53;;;22.82
34807;BMP280;18310;55.586;12.286;2023-09-19T11:07:26;100383.09;;;22.90
34807;BMP280;18310;55.586;12.286;2023-09-19T11:10:48;100371.31;;;22.98
34807;BMP280;18310;55.586;12.286;2023-09-19T11:14:13;100379.38;;;23.05
34807;BMP280;18310;55.586;12.286;2023-09-19T11:17:42;100377.69;;;23.20
34807;BMP280;18310;55.586;12.286;2023-09-19T11:20:49;100388.28;;;23.34
34807;BMP280;18310;55.586;12.286;2023-09-19T11:27:29;100388.34;;;23.65
34807;BMP280;18310;55.586;12.286;2023-09-19T11:30:37;100394.78;;;23.84
34807;BMP280;18310;55.586;12.286;2023-09-19T11:33:42;100412.81;;;24.01
34807;BMP280;18310;55.586;12.286;2023-09-19T11:36:48;100417.00;;;24.05
34807;BMP280;18310;55.586;12.286;2023-09-19T11:40:05;100403.25;;;24.02
34807;BMP280;18310;55.586;12.286;2023-09-19T11:43:29;100409.41;;;23.97
34807;BMP280;18310;55.586;12.286;2023-09-19T11:46:51;100409.03;;;23.86
34807;BMP280;18310;55.586;12.286;2023-09-19T11:49:56;100413.09;;;23.72
34807;BMP280;18310;55.586;12.286;2023-09-19T11:53:01;100405.13;;;23.62
34807;BMP280;18310;55.586;12.286;2023-09-19T11:56:11;100411.22;;;23.69
34807;BMP280;18310;55.586;12.286;2023-09-19T11:59:20;100410.44;;;23.69
34807;BMP280;18310;55.586;12.286;2023-09-19T12:02:35;100410.66;;;23.74
34807;BMP280;18310;55.586;12.286;2023-09-19T12:05:43;100405.47;;;23.85
34807;BMP280;18310;55.586;12.286;2023-09-19T12:08:46;100416.19;;;23.96
34807;BMP280;18310;55.586;12.286;2023-09-19T12:11:50;100412.22;;;24.06
34807;BMP280;18310;55.586;12.286;2023-09-19T12:14:55;100414.31;;;24.15
34807;BMP280;18310;55.586;12.286;2023-09-19T12:20:42;100409.19;;;24.13
34807;BMP280;18310;55.586;12.286;2023-09-19T12:23:59;100411.56;;;24.24
34807;BMP280;18310;55.586;12.286;2023-09-19T12:27:04;100412.47;;;24.30
34807;BMP280;18310;55.586;12.286;2023-09-19T12:30:09;100420.25;;;24.35
34807;BMP280;18310;55.586;12.286;2023-09-19T12:33:28;100421.03;;;24.35
34807;BMP280;18310;55.586;12.286;2023-09-19T12:36:33;100418.19;;;24.26
34807;BMP280;18310;55.586;12.286;2023-09-19T12:39:38;100406.25;;;24.17
34807;BMP280;18310;55.586;12.286;2023-09-19T12:42:43;100414.72;;;24.04
34807;BMP280;18310;55.586;12.286;2023-09-19T12:45:48;100428.25;;;23.93
34807;BMP280;18310;55.586;12.286;2023-09-19T12:49:15;100429.84;;;23.81
34807;BMP280;18310;55.586;12.286;2023-09-19T12:52:34;100427.31;;;23.74
34807;BMP280;18310;55.586;12.286;2023-09-19T12:55:38;100420.66;;;23.72
34807;BMP280;18310;55.586;12.286;2023-09-19T12:58:55;100418.19;;;23.74
34807;BMP280;18310;55.586;12.286;2023-09-19T13:02:04;100417.50;;;23.82
34807;BMP280;18310;55.586;12.286;2023-09-19T13:05:49;100413.84;;;23.94
34807;BMP280;18310;55.586;12.286;2023-09-19T13:09:08;100414.06;;;24.00
34807;BMP280;18310;55.586;12.286;2023-09-19T13:12:35;100409.44;;;24.06
34807;BMP280;18310;55.586;12.286;2023-09-19T13:15:51;100406.53;;;24.10
34807;BMP280;18310;55.586;12.286;2023-09-19T13:18:55;100395.91;;;24.17
34807;BMP280;18310;55.586;12.286;2023-09-19T13:22:01;100400.72;;;24.26
34807;BMP280;18310;55.586;12.286;2023-09-19T13:25:05;100398.13;;;24.31
34807;BMP280;18310;55.586;12.286;2023-09-19T13:28:09;100402.34;;;24.36
34807;BMP280;18310;55.586;12.286;2023-09-19T13:31:12;100405.13;;;24.36
34807;BMP280;18310;55.586;12.286;2023-09-19T13:34:16;100400.00;;;24.34
34807;BMP280;18310;55.586;12.286;2023-09-19T13:37:27;100390.31;;;24.39
34807;BMP280;18310;55.586;12.286;2023-09-19T13:40:32;100399.22;;;24.34
34807;BMP280;18310;55.586;12.286;2023-09-19T13:43:37;100398.00;;;24.35
34807;BMP280;18310;55.586;12.286;2023-09-19T13:46:41;100399.41;;;24.39
34807;BMP280;18310;55.586;12.286;2023-09-19T13:49:48;100395.88;;;24.48
34807;BMP280;18310;55.586;12.286;2023-09-19T13:52:54;100394.91;;;24.42
34807;BMP280;18310;55.586;12.286;2023-09-19T13:55:58;100390.56;;;24.41
34807;BMP280;18310;55.586;12.286;2023-09-19T13:59:01;100390.00;;;24.46
34807;BMP280;18310;55.586;12.286;2023-09-19T14:02:05;100381.78;;;24.51
34807;BMP280;18310;55.586;12.286;2023-09-19T14:05:09;100392.78;;;24.55
34807;BMP280;18310;55.586;12.286;2023-09-19T14:08:15;100394.50;;;24.52
34807;BMP280;18310;55.586;12.286;2023-09-19T14:11:19;100386.31;;;24.49
34807;BMP280;18310;55.586;12.286;2023-09-19T14:14:22;100379.16;;;24.39
34807;BMP280;18310;55.586;12.286;2023-09-19T14:17:25;100375.09;;;24.31
34807;BMP280;18310;55.586;12.286;2023-09-19T14:20:29;100388.34;;;24.18
34807;BMP280;18310;55.586;12.286;2023-09-19T14:23:56;100386.16;;;24.13
34807;BMP280;18310;55.586;12.286;2023-09-19T14:27:00;100393.69;;;24.03
34807;BMP280;18310;55.586;12.286;2023-09-19T14:30:07;100396.09;;;23.92
34807;BMP280;18310;55.586;12.286;2023-09-19T14:33:11;100380.72;;;23.78
34807;BMP280;18310;55.586;12.286;2023-09-19T14:36:17;100375.41;;;23.71
34807;BMP280;18310;55.586;12.286;2023-09-19T14:39:22;100374.72;;;23.58
34807;BMP280;18310;55.586;12.286;2023-09-19T14:42:26;100366.97;;;23.53
34807;BMP280;18310;55.586;12.286;2023-09-19T14:45:29;100378.66;;;23.48
34807;BMP280;18310;55.586;12.286;2023-09-19T14:48:33;100379.56;;;23.45
34807;BMP280;18310;55.586;12.286;2023-09-19T14:51:38;100369.47;;;23.38
34807;BMP280;18310;55.586;12.286;2023-09-19T14:54:43;100364.91;;;23.44
34807;BMP280;18310;55.586;12.286;2023-09-19T14:57:49;100370.47;;;23.44
34807;BMP280;18310;55.586;12.286;2023-09-19T15:00:53;100364.47;;;23.46
34807;BMP280;18310;55.586;12.286;2023-09-19T15:03:56;100366.00;;;23.47
34807;BMP280;18310;55.586;12.286;2023-09-19T15:07:00;100361.19;;;23.47
34807;BMP280;18310;55.586;12.286;2023-09-19T15:10:07;100357.97;;;23.49
34807;BMP280;18310;55.586;12.286;2023-09-19T15:13:11;100350.88;;;23.48
34807;BMP280;18310;55.586;12.286;2023-09-19T15:16:15;100346.56;;;23.47
34807;BMP280;18310;55.586;12.286;2023-09-19T15:19:18;100346.25;;;23.45
34807;BMP280;18310;55.586;12.286;2023-09-19T15:22:26;100333.56;;;23.44
34807;BMP280;18310;55.586;12.286;2023-09-19T15:25:30;100341.59;;;23.42
34807;BMP280;18310;55.586;12.286;2023-09-19T15:28:35;100344.91;;;23.37
34807;BMP280;18310;55.586;12.286;2023-09-19T15:31:38;100334.34;;;23.23
34807;BMP280;18310;55.586;12.286;2023-09-19T15:34:42;100334.16;;;23.17
34807;BMP280;18310;55.586;12.286;2023-09-19T15:37:45;100339.78;;;23.14
34807;BMP280;18310;55.586;12.286;2023-09-19T15:40:50;100334.19;;;23.05
34807;BMP280;18310;55.586;12.286;2023-09-19T15:43:56;100337.66;;;22.96
34807;BMP280;18310;55.586;12.286;2023-09-19T15:47:00;100335.69;;;22.84
34807;BMP280;18310;55.586;12.286;2023-09-19T15:50:04;100328.50;;;22.74
34807;BMP280;18310;55.586;12.286;2023-09-19T15:56:14;100326.53;;;22.62
34807;BMP280;18310;55.586;12.286;2023-09-19T15:59:18;100326.31;;;22.56
34807;BMP280;18310;55.586;12.286;2023-09-19T16:02:26;100321.34;;;22.51
34807;BMP280;18310;55.586;12.286;2023-09-19T16:05:35;100307.56;;;22.48
34807;BMP280;18310;55.586;12.286;2023-09-19T16:08:40;100302.91;;;22.45
34807;BMP280;18310;55.586;12.286;2023-09-19T16:11:44;100296.63;;;22.32
34807;BMP280;18310;55.586;12.286;2023-09-19T16:14:47;100288.50;;;22.37
34807;BMP280;18310;55.586;12.286;2023-09-19T16:17:51;100276.22;;;22.38
34807;BMP280;18310;55.586;12.286;2023-09-19T16:21:00;100273.44;;;22.38
34807;BMP280;18310;55.586;12.286;2023-09-19T16:24:04;100262.78;;;22.37
34807;BMP280;18310;55.586;12.286;2023-09-19T16:27:12;100262.00;;;22.36
34807;BMP280;18310;55.586;12.286;2023-09-19T16:30:17;100244.56;;;22.36
34807;BMP280;18310;55.586;12.286;2023-09-19T16:33:21;100231.19;;;22.34
34807;BMP280;18310;55.586;12.286;2023-09-19T16:36:24;100242.16;;;22.38
34807;BMP280;18310;55.586;12.286;2023-09-19T16:39:28;100224.19;;;22.42
34807;BMP280;18310;55.586;12.286;2023-09-19T16:42:33;100222.16;;;22.43
34807;BMP280;18310;55.586;12.286;2023-09-19T16:45:40;100215.72;;;22.46
34807;BMP280;18310;55.586;12.286;2023-09-19T16:48:45;100216.03;;;22.48
34807;BMP280;18310;55.586;12.286;2023-09-19T16:51:52;100216.81;;;22.48
34807;BMP280;18310;55.586;12.286;2023-09-19T16:54:55;100216.41;;;22.50
34807;BMP280;18310;55.586;12.286;2023-09-19T16:57:59;100209.16;;;22.52
34807;BMP280;18310;55.586;12.286;2023-09-19T17:01:03;100204.72;;;22.55
34807;BMP280;18310;55.586;12.286;2023-09-19T17:04:06;100209.16;;;22.52
34807;BMP280;18310;55.586;12.286;2023-09-19T17:07:09;100199.28;;;22.51
34807;BMP280;18310;55.586;12.286;2023-09-19T17:10:13;100214.38;;;22.50
34807;BMP280;18310;55.586;12.286;2023-09-19T17:13:18;100195.72;;;22.51
34807;BMP280;18310;55.586;12.286;2023-09-19T17:16:21;100190.19;;;22.51
34807;BMP280;18310;55.586;12.286;2023-09-19T17:19:25;100174.66;;;22.53
34807;BMP280;18310;55.586;12.286;2023-09-19T17:22:29;100180.22;;;22.53
34807;BMP280;18310;55.586;12.286;2023-09-19T17:25:32;100178.22;;;22.54
34807;BMP280;18310;55.586;12.286;2023-09-19T17:28:37;100180.72;;;22.61
34807;BMP280;18310;55.586;12.286;2023-09-19T17:31:41;100181.84;;;22.63
34807;BMP280;18310;55.586;12.286;2023-09-19T17:34:46;100171.38;;;22.67
34807;BMP280;18310;55.586;12.286;2023-09-19T17:37:49;100181.69;;;22.67